Des Moines International Airport Des Moines US
ICAO: KDSM
IATA: DSM
Category: Large
Scheduled Services: Yes

Elevation: 958 ft
TransAlt. 18000 ft.

Airport Communications:
APP/DEP:118.6
ATIS:119.55
CLNC DEL:134.15
GND:121.9
ANG OPS MAINT:138.15
FORT DODGE RDO:122.65
TWR:118.3
UNICOM:122.95

KDSM Zoom In..

If you have problems with the map follow the link
https://www.worldairports.se/pages/airport.php?
ICAO=KDSM

Runways:

(A) RW 05 length 9003 ft width 150 ft
ILS 111.50 / hdg 51

(B) RW 13 length 9002 ft width 150 ft
ILS 111.90 / hdg 129

(C) RW 23 length 9003 ft width 150 ft
---- / hdg 231

(D) RW 31 length 9002 ft width 150 ft
ILS 110.30 / hdg 309

Location; KDSM
Day. 18 / Time. 00.13 Zulu
* Altimeter: 30.00
* Temperature: -03° c. -26.6°f.
* Wind from: 140° Speed 17 kn with Gusts up to 24 kn.
Dewpoint: -05° c.
Visibility: 7 Statute Miles.
Clouds: Overcast 900 ft.

KDSM 180013Z 14017G24KT 7SM -FZDZ OVC009 M03/M05 A3000 RMK AO2 P0000 I1000 T10331050


Wind From 140°
Speed 17 kn.

 
 
jpsmedia worldairports.se 2020   terms of use